Time;durP1;ratioP1;P1;durP2;ratioP2;P2;SDS_P1;SDS_P2;PMS_P1;PMS_P2;Temp;Humidity;BMP_temperature;BMP_pressure;BME280_temperature;BME280_humidity;BME280_pressure;Samples;Min_cycle;Max_cycle;Signal;HPM_P1;HPM_P2
2022/06/15 00:01:07;;;;;;;17.23;14.13;;;;;;;21.10;63.34;100191.47;5080355;28;20162;-73
2022/06/15 00:03:40;;;;;;;15.45;13.63;;;;;;;21.12;62.93;100205.28;5078403;28;20162;-72
2022/06/15 00:06:10;;;;;;;16.95;13.32;;;;;;;21.04;63.21;100201.44;5080978;28;20086;-73
2022/06/15 00:08:39;;;;;;;18.80;10.15;;;;;;;20.93;63.14;100198.28;5079563;28;20106;-71
2022/06/15 00:11:16;;;;;;;13.90;8.37;;;;;;;20.79;63.27;100189.31;5080507;28;20123;-71
2022/06/15 00:13:44;;;;;;;18.30;7.82;;;;;;;20.85;63.48;100193.53;5081443;28;20495;-71
2022/06/15 00:16:12;;;;;;;25.00;9.20;;;;;;;20.80;63.10;100193.81;5082626;28;20150;-68
2022/06/15 00:18:40;;;;;;;18.05;8.75;;;;;;;20.79;63.39;100200.69;5074277;28;20067;-68
2022/06/15 00:21:07;;;;;;;12.60;8.07;;;;;;;20.72;63.28;100194.78;5081403;28;20050;-73
2022/06/15 00:23:34;;;;;;;17.85;8.65;;;;;;;20.44;63.52;100150.09;5082615;28;20044;-72
2022/06/15 00:26:02;;;;;;;11.48;8.32;;;;;;;20.65;63.52;100186.03;5084644;28;20501;-74
2022/06/15 00:28:29;;;;;;;17.00;9.50;;;;;;;20.58;63.53;100184.63;5089547;28;20499;-70
2022/06/15 00:30:57;;;;;;;14.82;9.20;;;;;;;20.47;63.55;100166.41;5077896;28;20533;-71
2022/06/15 00:33:28;;;;;;;19.73;9.63;;;;;;;20.49;63.56;100166.06;5079929;28;20050;-70
2022/06/15 00:36:01;;;;;;;18.27;9.38;;;;;;;20.54;63.56;100185.69;5081193;28;20189;-71
2022/06/15 00:38:49;;;;;;;12.38;9.40;;;;;;;20.30;64.04;100152.47;5080841;28;20546;-71
2022/06/15 00:41:21;;;;;;;18.00;9.05;;;;;;;20.32;64.21;100176.47;5080976;28;20132;-72
2022/06/15 00:43:56;;;;;;;15.63;9.68;;;;;;;20.29;64.25;100176.34;5086129;28;20087;-69
2022/06/15 00:46:39;;;;;;;13.75;8.85;;;;;;;20.24;64.32;100168.06;5084843;28;20530;-70
2022/06/15 00:49:40;;;;;;;15.27;9.93;;;;;;;20.13;64.33;100148.72;5074398;28;20044;-69
2022/06/15 00:52:39;;;;;;;18.38;9.45;;;;;;;20.18;64.63;100158.19;5061758;28;20132;-69
2022/06/15 00:55:18;;;;;;;15.48;8.40;;;;;;;20.11;64.70;100142.59;5085813;28;20048;-71
2022/06/15 00:57:46;;;;;;;;;;;;;;;19.92;64.95;100150.00;5075175;28;20515;-71
2022/06/15 01:00:13;;;;;;;21.17;9.90;;;;;;;20.08;65.15;100151.78;5080573;28;20003;-71
2022/06/15 01:02:42;;;;;;;14.65;9.05;;;;;;;19.75;65.08;100083.88;5081290;28;20072;-71
2022/06/15 01:05:20;;;;;;;19.58;10.45;;;;;;;20.18;64.77;100141.16;5084328;28;20087;-71
2022/06/15 01:08:06;;;;;;;21.70;11.18;;;;;;;20.00;64.97;100127.25;5078646;28;20562;-69
2022/06/15 01:10:39;;;;;;;22.95;14.45;;;;;;;20.17;64.92;100134.69;5080778;28;20571;-69
2022/06/15 01:13:28;;;;;;;15.98;10.70;;;;;;;20.19;65.02;100134.31;5079182;28;20047;-70
2022/06/15 01:16:06;;;;;;;15.13;11.38;;;;;;;20.17;64.88;100148.00;5077472;28;20075;-70
2022/06/15 01:19:14;;;;;;;17.15;13.05;;;;;;;20.13;64.88;100122.38;5083620;28;20064;-70
2022/06/15 01:21:50;;;;;;;40.50;24.60;;;;;;;20.05;65.10;100095.81;5074239;28;20158;-69
2022/06/15 01:24:29;;;;;;;27.10;18.55;;;;;;;20.14;64.99;100121.22;5076823;28;20067;-69
2022/06/15 01:27:23;;;;;;;19.10;14.95;;;;;;;20.12;65.15;100118.72;5079188;28;20605;-71
2022/06/15 01:29:55;;;;;;;19.85;14.57;;;;;;;20.18;65.31;100113.63;5079822;28;20139;-71
2022/06/15 01:32:40;;;;;;;21.33;16.00;;;;;;;20.22;65.02;100110.91;5072203;28;20144;-71
2022/06/15 01:35:12;;;;;;;24.25;15.95;;;;;;;20.31;64.76;100100.28;5084276;28;20040;-70
2022/06/15 01:37:51;;;;;;;22.52;16.85;;;;;;;20.37;64.75;100101.66;5086556;28;20079;-70
2022/06/15 01:40:32;;;;;;;25.65;15.38;;;;;;;20.39;64.65;100107.81;5076622;28;20051;-70
2022/06/15 01:43:18;;;;;;;18.40;16.10;;;;;;;20.38;64.66;100103.34;5075554;28;20414;-70
2022/06/15 01:45:47;;;;;;;19.77;16.10;;;;;;;20.40;64.56;100102.97;5085398;28;20559;-70
2022/06/15 01:48:16;;;;;;;25.60;18.15;;;;;;;20.44;64.43;100107.56;5080773;28;20143;-70
2022/06/15 01:50:47;;;;;;;21.77;15.10;;;;;;;20.27;64.52;100071.81;5074676;28;20079;-70
2022/06/15 01:53:29;;;;;;;26.90;18.17;;;;;;;20.07;64.33;100045.28;5082510;28;20135;-70
2022/06/15 01:56:08;;;;;;;29.63;18.75;;;;;;;20.52;64.32;100123.66;5088519;28;20075;-71
2022/06/15 01:58:38;;;;;;;28.17;15.40;;;;;;;20.40;64.27;100095.28;5076213;28;20482;-70
2022/06/15 02:01:20;;;;;;;21.33;15.48;;;;;;;20.41;64.27;100116.81;5088439;28;20040;-71
2022/06/15 02:03:58;;;;;;;17.02;15.20;;;;;;;20.38;64.28;100106.16;5089356;28;20051;-70
2022/06/15 02:06:30;;;;;;;25.77;15.70;;;;;;;20.43;64.26;100114.41;5086606;28;20482;-70
2022/06/15 02:09:11;;;;;;;22.38;16.35;;;;;;;20.39;64.23;100104.97;5083053;28;20515;-71
2022/06/15 02:11:42;;;;;;;20.08;15.60;;;;;;;20.26;64.35;100086.34;5085208;28;20052;-70
2022/06/15 02:14:16;;;;;;;20.85;15.45;;;;;;;20.34;64.35;100099.53;5084376;28;20135;-71
2022/06/15 02:16:50;;;;;;;20.33;16.92;;;;;;;20.28;64.60;100083.97;5083626;28;20048;-70
2022/06/15 02:19:22;;;;;;;23.65;16.13;;;;;;;20.25;64.63;100079.03;5095041;28;20437;-72
2022/06/15 02:21:52;;;;;;;19.45;15.95;;;;;;;20.26;64.91;100072.16;5094656;28;20474;-70
2022/06/15 02:24:22;;;;;;;28.20;16.20;;;;;;;20.40;65.01;100058.41;5092653;28;20138;-70
2022/06/15 02:26:50;;;;;;;25.27;15.32;;;;;;;20.56;65.15;100053.66;5082768;28;20056;-70
2022/06/15 02:29:22;;;;;;;27.50;15.73;;;;;;;20.83;64.81;100068.22;5091136;28;20043;-71
2022/06/15 02:31:49;;;;;;;26.58;16.58;;;;;;;20.86;64.16;100067.50;5087872;28;20473;-69
2022/06/15 02:34:15;;;;;;;21.08;15.32;;;;;;;20.84;64.50;100078.38;5092779;28;20093;-69
2022/06/15 02:36:43;;;;;;;19.35;14.38;;;;;;;20.88;64.35;100073.63;5096734;28;20139;-71
2022/06/15 02:39:11;;;;;;;24.95;15.73;;;;;;;20.81;64.50;100064.91;5081678;28;20131;-71
2022/06/15 02:41:38;;;;;;;17.00;15.10;;;;;;;20.77;64.34;100061.16;5080166;28;20135;-71
2022/06/15 02:44:08;;;;;;;20.27;15.48;;;;;;;20.62;64.32;100059.91;5079154;28;20176;-71
2022/06/15 02:46:41;;;;;;;23.08;15.30;;;;;;;20.71;64.24;100080.44;5097977;28;20056;-70
2022/06/15 02:49:09;;;;;;;20.27;15.45;;;;;;;20.61;64.09;100069.59;5088337;28;20048;-69
2022/06/15 02:51:49;;;;;;;23.60;15.98;;;;;;;20.56;64.14;100059.34;5088215;28;20078;-69
2022/06/15 02:54:34;;;;;;;;;;;;;;;20.47;64.41;100064.28;5084613;28;20094;-70
2022/06/15 02:57:01;;;;;;;22.45;16.25;;;;;;;20.57;64.59;100060.97;5089870;28;20018;-70
2022/06/15 02:59:28;;;;;;;26.75;19.17;;;;;;;20.70;64.92;100061.75;5089020;28;20147;-69
2022/06/15 03:01:57;;;;;;;38.30;20.35;;;;;;;20.72;64.80;100061.44;5094818;28;20127;-70
2022/06/15 03:04:24;;;;;;;25.17;17.03;;;;;;;20.69;64.87;100064.97;5085835;28;20050;-70
2022/06/15 03:06:51;;;;;;;21.52;16.38;;;;;;;20.68;65.05;100063.31;5087295;28;20447;-70
2022/06/15 03:09:18;;;;;;;22.20;16.42;;;;;;;20.63;64.90;100043.72;5093644;28;20076;-71
2022/06/15 03:11:45;;;;;;;35.08;19.60;;;;;;;20.63;64.85;100043.72;5096370;28;20076;-71
2022/06/15 03:14:15;;;;;;;23.38;17.80;;;;;;;20.65;65.28;100044.16;5093085;28;20450;-70
2022/06/15 03:16:43;;;;;;;31.10;17.80;;;;;;;20.67;65.12;100044.66;5088680;28;20463;-71
2022/06/15 03:19:11;;;;;;;26.35;19.08;;;;;;;20.59;65.29;100038.75;5096831;28;20452;-71
2022/06/15 03:21:38;;;;;;;25.08;18.23;;;;;;;20.55;65.18;100025.66;5092432;28;20076;-71
2022/06/15 03:24:06;;;;;;;24.58;17.73;;;;;;;20.47;65.07;100013.25;5091060;28;20147;-70
2022/06/15 03:26:33;;;;;;;26.55;20.63;;;;;;;20.45;65.35;100001.44;5089178;28;20534;-70
2022/06/15 03:29:00;;;;;;;35.65;20.25;;;;;;;20.66;65.35;100032.47;5094885;28;20087;-71
2022/06/15 03:31:27;;;;;;;35.20;20.75;;;;;;;20.42;65.48;99993.66;5085253;28;20135;-71
2022/06/15 03:33:55;;;;;;;31.08;17.77;;;;;;;20.55;65.42;100020.00;5087970;28;20062;-70
2022/06/15 03:36:22;;;;;;;21.38;16.80;;;;;;;20.58;65.31;100045.63;5084855;28;20131;-71
2022/06/15 03:38:49;;;;;;;27.42;17.33;;;;;;;20.44;65.30;100030.16;5083351;28;20127;-71
2022/06/15 03:41:17;;;;;;;22.83;16.85;;;;;;;20.58;65.35;100048.47;5079756;28;20079;-70
2022/06/15 03:43:45;;;;;;;22.27;17.90;;;;;;;20.47;65.15;100035.09;5087286;28;20470;-70
2022/06/15 03:46:13;;;;;;;24.13;18.00;;;;;;;20.58;64.97;100054.16;5082026;28;20048;-69
2022/06/15 03:48:40;;;;;;;20.80;18.25;;;;;;;20.69;65.27;100062.13;5088888;28;20105;-70
2022/06/15 03:51:07;;;;;;;31.65;20.55;;;;;;;20.69;65.24;100059.31;5103737;28;20059;-70
2022/06/15 03:53:34;;;;;;;29.27;18.70;;;;;;;20.79;65.88;100058.78;5093043;28;20047;-70
2022/06/15 03:56:01;;;;;;;24.20;18.58;;;;;;;21.10;65.67;100074.25;5082356;28;20555;-69
2022/06/15 03:58:28;;;;;;;22.30;15.18;;;;;;;21.28;65.28;100072.72;5084597;28;20052;-71
2022/06/15 04:00:55;;;;;;;27.40;16.27;;;;;;;21.15;65.85;100071.94;5085699;28;20467;-70
2022/06/15 04:03:22;;;;;;;23.50;15.27;;;;;;;21.20;65.27;100085.06;5079538;28;20578;-70
2022/06/15 04:05:55;;;;;;;24.08;15.68;;;;;;;20.98;65.77;100044.72;5080552;28;20060;-69
2022/06/15 04:08:34;;;;;;;20.13;15.07;;;;;;;21.13;65.87;100067.81;5074817;28;20151;-69
2022/06/15 04:11:06;;;;;;;20.85;14.65;;;;;;;21.25;66.29;100079.13;5080202;28;20467;-70
2022/06/15 04:13:34;;;;;;;18.88;13.77;;;;;;;21.47;66.17;100081.38;5076196;28;20122;-72
2022/06/15 04:16:04;;;;;;;15.65;12.43;;;;;;;22.11;64.80;100106.91;5084969;28;20105;-71
2022/06/15 04:18:31;;;;;;;16.80;14.65;;;;;;;22.27;64.63;100093.50;5091042;28;20078;-72
2022/06/15 04:20:58;;;;;;;20.27;13.23;;;;;;;22.30;64.68;100107.00;5090899;28;20387;-72
2022/06/15 04:23:25;;;;;;;20.90;13.30;;;;;;;22.32;64.05;100120.84;5080737;28;20078;-72
2022/06/15 04:25:58;;;;;;;20.02;14.60;;;;;;;22.30;64.12;100166.72;5081664;28;20126;-72
2022/06/15 04:28:30;;;;;;;17.10;13.80;;;;;;;22.06;64.40;100207.53;5085164;28;20469;-72
2022/06/15 04:30:57;;;;;;;16.75;13.60;;;;;;;21.79;64.71;100180.03;5081579;28;20426;-72
2022/06/15 04:33:27;;;;;;;20.10;14.52;;;;;;;21.87;65.34;100202.56;5086495;28;20558;-69
2022/06/15 04:35:54;;;;;;;20.60;14.15;;;;;;;22.03;65.47;100213.16;5086729;28;20047;-67
2022/06/15 04:38:22;;;;;;;28.17;16.55;;;;;;;22.08;65.30;100204.31;5089372;28;20135;-68
2022/06/15 04:40:49;;;;;;;22.92;15.43;;;;;;;22.24;65.14;100202.34;5087817;28;20449;-69
2022/06/15 04:43:16;;;;;;;15.65;14.18;;;;;;;22.41;64.63;100238.13;5089370;28;20126;-69
2022/06/15 04:45:43;;;;;;;17.63;13.50;;;;;;;22.42;64.46;100253.97;5085124;28;20474;-69
2022/06/15 04:48:10;;;;;;;15.65;13.85;;;;;;;22.40;65.05;100245.00;5078483;28;20135;-69
2022/06/15 04:50:38;;;;;;;18.92;14.45;;;;;;;22.42;64.62;100265.38;5082911;28;20589;-68
2022/06/15 04:53:05;;;;;;;20.38;15.85;;;;;;;22.26;64.49;100279.59;5088395;28;20159;-69
2022/06/15 04:55:33;;;;;;;18.95;16.25;;;;;;;21.86;64.49;100265.50;5079854;28;20051;-70
2022/06/15 04:58:01;;;;;;;18.45;13.30;;;;;;;22.02;64.57;100320.38;5085684;28;20090;-70
2022/06/15 05:00:35;;;;;;;18.15;15.15;;;;;;;22.04;64.30;100322.84;5082788;28;20517;-70
2022/06/15 05:03:03;;;;;;;22.67;14.30;;;;;;;21.93;64.53;100323.38;5085940;28;20043;-71
2022/06/15 05:05:31;;;;;;;13.20;11.88;;;;;;;21.71;65.19;100292.69;5085034;28;20059;-70
2022/06/15 05:07:58;;;;;;;15.18;5.45;;;;;;;22.18;65.10;100315.53;5088221;28;20059;-68
2022/06/15 05:10:26;;;;;;;17.52;7.15;;;;;;;22.52;64.62;100343.66;5086738;28;20889;-69
2022/06/15 05:12:53;;;;;;;14.18;7.03;;;;;;;22.64;63.93;100352.13;5084063;28;20083;-69
2022/06/15 05:15:20;;;;;;;12.23;5.57;;;;;;;22.47;63.58;100354.13;5086858;28;20464;-70
2022/06/15 05:17:48;;;;;;;19.45;6.53;;;;;;;22.12;63.79;100341.75;5087159;28;20126;-70
2022/06/15 05:20:16;;;;;;;13.68;5.22;;;;;;;21.88;64.24;100323.63;5074367;28;20080;-70
2022/06/15 05:22:48;;;;;;;14.48;8.18;;;;;;;21.82;64.36;100322.25;5083761;28;20076;-69
2022/06/15 05:25:16;;;;;;;11.38;6.80;;;;;;;21.62;65.43;100317.59;5093010;28;20075;-71
2022/06/15 05:27:42;;;;;;;21.92;8.88;;;;;;;21.54;65.91;100322.25;5082746;28;20471;-71
2022/06/15 05:30:10;;;;;;;22.13;9.00;;;;;;;21.20;65.28;100283.84;5083889;28;20135;-70
2022/06/15 05:32:36;;;;;;;12.40;6.47;;;;;;;21.24;66.25;100328.19;5083400;28;20148;-69
2022/06/15 05:35:04;;;;;;;15.80;8.32;;;;;;;21.13;66.36;100312.84;5082954;28;20127;-69
2022/06/15 05:37:32;;;;;;;21.33;9.95;;;;;;;21.22;66.83;100302.16;5078219;28;20235;-70
2022/06/15 05:39:59;;;;;;;21.90;8.93;;;;;;;21.36;66.33;100298.97;5080579;28;20131;-70
2022/06/15 05:42:28;;;;;;;11.15;6.30;;;;;;;21.42;66.33;100297.53;5080696;28;20095;-72
2022/06/15 05:44:56;;;;;;;16.55;6.28;;;;;;;21.36;66.50;100275.41;5079144;28;20057;-70
2022/06/15 05:47:23;;;;;;;16.67;8.40;;;;;;;21.41;66.42;100273.16;5080460;28;20451;-70
2022/06/15 05:49:50;;;;;;;12.80;6.18;;;;;;;21.33;66.85;100281.78;5084549;28;20567;-71
2022/06/15 05:52:17;;;;;;;17.85;7.40;;;;;;;21.11;68.10;100257.59;5086585;28;20044;-70
2022/06/15 05:54:44;;;;;;;20.40;9.98;;;;;;;21.14;69.15;100268.25;5075478;28;20127;-70
2022/06/15 05:57:18;;;;;;;13.50;6.72;;;;;;;21.25;68.57;100238.97;5085724;28;20083;-70
2022/06/15 05:59:47;;;;;;;10.20;6.30;;;;;;;21.47;68.21;100237.63;5082475;28;20044;-70
2022/06/15 06:02:16;;;;;;;20.40;9.25;;;;;;;21.66;68.65;100248.28;5061474;28;20163;-68
2022/06/15 06:04:42;;;;;;;17.33;8.35;;;;;;;21.70;67.45;100220.78;5076060;28;20087;-66
2022/06/15 06:07:16;;;;;;;9.63;3.67;;;;;;;21.60;66.69;100226.19;5077744;28;20047;-66
2022/06/15 06:09:43;;;;;;;12.07;5.18;;;;;;;21.38;66.72;100228.44;5073929;28;20048;-67
2022/06/15 06:12:10;;;;;;;12.13;5.45;;;;;;;21.36;66.62;100212.94;5078828;28;20179;-64
2022/06/15 06:14:38;;;;;;;10.57;6.03;;;;;;;21.36;66.17;100208.06;5076446;28;20131;-65
2022/06/15 06:17:08;;;;;;;13.68;5.43;;;;;;;21.68;65.21;100206.13;5081688;28;20475;-66
2022/06/15 06:19:36;;;;;;;15.43;5.95;;;;;;;21.68;64.33;100182.59;5083019;28;20059;-65
2022/06/15 06:22:03;;;;;;;13.32;5.68;;;;;;;21.98;63.96;100237.81;5073337;28;20123;-66
2022/06/15 06:24:30;;;;;;;18.23;6.75;;;;;;;21.83;64.38;100230.09;5075293;28;20053;-67
2022/06/15 06:27:01;;;;;;;12.95;4.93;;;;;;;21.99;63.74;100222.41;5084929;28;20157;-65
2022/06/15 06:29:29;;;;;;;6.45;4.03;;;;;;;21.92;63.63;100204.34;5076393;28;20160;-66
2022/06/15 06:31:58;;;;;;;10.82;4.35;;;;;;;22.05;63.59;100222.13;5078590;28;20146;-67
2022/06/15 06:34:26;;;;;;;10.93;6.60;;;;;;;22.09;63.39;100174.72;5070896;28;20136;-66
2022/06/15 06:36:53;;;;;;;13.98;6.05;;;;;;;22.46;62.88;100169.53;5073854;28;20716;-68
2022/06/15 06:39:25;;;;;;;12.55;5.95;;;;;;;22.73;62.11;100172.59;5084259;28;20079;-65
2022/06/15 06:41:53;;;;;;;13.20;6.35;;;;;;;22.74;61.79;100135.22;5077001;28;20143;-66
2022/06/15 06:44:20;;;;;;;11.82;5.93;;;;;;;22.88;61.98;100157.50;5088680;28;20091;-65
2022/06/15 06:46:49;;;;;;;17.58;5.55;;;;;;;23.00;61.91;100162.22;5080907;28;20048;-67
2022/06/15 06:49:17;;;;;;;15.03;5.20;;;;;;;23.06;61.85;100180.69;5075262;28;20097;-64
2022/06/15 06:51:45;;;;;;;10.63;6.45;;;;;;;23.14;61.50;100188.97;5079884;28;20089;-65
2022/06/15 06:54:15;;;;;;;13.18;6.07;;;;;;;23.19;61.45;100145.16;5086498;28;20048;-66
2022/06/15 06:56:41;;;;;;;12.25;5.63;;;;;;;23.31;61.05;100093.69;5086209;28;20056;-64
2022/06/15 06:59:12;;;;;;;18.02;7.47;;;;;;;23.50;60.43;100049.25;5078026;28;20151;-66
2022/06/15 07:01:41;;;;;;;14.60;6.05;;;;;;;23.51;60.30;100042.34;5083876;28;20068;-66
2022/06/15 07:04:09;;;;;;;19.15;6.82;;;;;;;23.44;60.24;100025.94;5078459;28;20511;-66
2022/06/15 07:06:36;;;;;;;12.18;5.50;;;;;;;23.64;59.67;100012.44;5086633;28;20152;-66
2022/06/15 07:09:04;;;;;;;17.33;6.72;;;;;;;23.74;59.45;100006.13;5065986;28;20135;-66
2022/06/15 07:11:31;;;;;;;17.95;6.03;;;;;;;23.84;59.48;100019.72;5084308;28;20155;-66
2022/06/15 07:13:59;;;;;;;12.27;5.97;;;;;;;23.84;59.42;99996.09;5087290;28;20044;-66
2022/06/15 07:16:26;;;;;;;12.65;6.35;;;;;;;24.03;58.86;100015.91;5086824;28;20052;-66
2022/06/15 07:18:54;;;;;;;12.40;6.00;;;;;;;24.04;58.83;99991.09;5086252;28;20052;-66
2022/06/15 07:21:24;;;;;;;17.08;9.35;;;;;;;24.28;58.42;99970.63;5083777;28;20585;-66
2022/06/15 07:23:55;;;;;;;20.88;7.95;;;;;;;24.43;57.93;99963.09;5085207;28;20057;-67
2022/06/15 07:26:36;;;;;;;23.08;7.55;;;;;;;24.68;58.19;99986.22;5088065;28;20059;-67
2022/06/15 07:29:04;;;;;;;17.30;6.22;;;;;;;24.66;57.73;99993.56;5081104;28;20098;-67
2022/06/15 07:31:34;;;;;;;18.58;7.40;;;;;;;24.82;57.58;100043.53;5076510;28;20051;-66
2022/06/15 07:34:02;;;;;;;10.68;5.38;;;;;;;24.83;57.67;100048.03;5082998;28;20079;-66
2022/06/15 07:36:34;;;;;;;14.82;6.45;;;;;;;24.67;57.73;100058.81;5079843;28;20099;-66
2022/06/15 07:39:02;;;;;;;15.98;4.53;;;;;;;24.29;57.77;100077.84;5080795;28;20572;-67
2022/06/15 07:41:29;;;;;;;13.50;7.18;;;;;;;24.30;57.50;100092.94;5080447;28;20119;-66
2022/06/15 07:43:56;;;;;;;18.15;5.80;;;;;;;24.29;57.15;100055.03;5087716;28;20060;-67
2022/06/15 07:46:23;;;;;;;17.20;6.60;;;;;;;24.51;57.11;100078.19;5085269;28;20044;-65
2022/06/15 07:51:49;;;;;;;18.10;6.72;;;;;;;24.04;57.59;100053.84;5087733;28;20040;-66
2022/06/15 07:54:18;;;;;;;11.25;5.28;;;;;;;24.05;58.04;100067.72;5085360;28;20086;-66
2022/06/15 07:56:46;;;;;;;5.40;3.13;;;;;;;24.02;58.63;100079.88;5110493;28;20048;-66
2022/06/15 07:59:14;;;;;;;15.68;6.25;;;;;;;24.04;58.23;100066.06;5080318;28;20044;-65
2022/06/15 08:01:43;;;;;;;11.57;6.72;;;;;;;24.04;58.84;100068.94;5086535;28;20155;-66
2022/06/15 08:04:11;;;;;;;12.32;6.43;;;;;;;23.94;59.07;100086.69;5078782;28;20407;-66
2022/06/15 08:06:42;;;;;;;10.93;6.45;;;;;;;24.08;58.48;100106.06;5083774;28;20093;-66
2022/06/15 08:09:11;;;;;;;11.88;6.60;;;;;;;24.22;58.36;100151.94;5089017;28;20104;-66
2022/06/15 08:11:38;;;;;;;14.30;6.00;;;;;;;24.30;58.37;100175.69;5085001;28;20052;-66
2022/06/15 08:14:05;;;;;;;14.05;4.40;;;;;;;24.45;58.30;100148.25;5088911;28;20051;-66
2022/06/15 08:16:33;;;;;;;14.73;5.28;;;;;;;24.59;57.86;100179.84;5092391;28;20079;-65
2022/06/15 08:19:03;;;;;;;13.27;6.15;;;;;;;24.75;57.41;100176.81;5078577;28;20044;-66
2022/06/15 08:21:36;;;;;;;17.33;5.05;;;;;;;24.86;56.86;100142.72;5078534;28;20529;-65
2022/06/15 08:24:03;;;;;;;18.95;5.75;;;;;;;24.92;56.42;100179.09;5091624;28;20079;-66
2022/06/15 08:26:37;;;;;;;15.60;5.78;;;;;;;25.26;55.79;100205.72;5104636;28;20075;-66
2022/06/15 08:29:10;;;;;;;19.92;5.15;;;;;;;25.82;55.29;100198.22;5093206;28;20083;-65
2022/06/15 08:31:37;;;;;;;24.00;5.57;;;;;;;26.13;54.60;100196.03;5083879;28;20144;-66
2022/06/15 08:34:05;;;;;;;21.05;4.97;;;;;;;26.21;53.84;100189.97;5088845;28;20050;-66
2022/06/15 08:36:33;;;;;;;6.95;3.28;;;;;;;26.01;53.24;100165.69;5084373;28;20052;-67
2022/06/15 08:39:00;;;;;;;10.15;4.97;;;;;;;26.11;52.62;100205.00;5088387;28;20079;-67
2022/06/15 08:41:36;;;;;;;27.85;5.75;;;;;;;26.09;52.81;100215.22;5083198;28;20056;-66
2022/06/15 08:44:22;;;;;;;12.68;5.28;;;;;;;25.87;52.66;100206.41;5087209;28;20074;-67
2022/06/15 08:47:08;;;;;;;13.27;4.63;;;;;;;25.71;53.16;100180.09;5081783;28;20052;-66
2022/06/15 08:49:53;;;;;;;15.90;5.28;;;;;;;25.65;52.95;100204.53;5085970;28;20088;-66
2022/06/15 08:52:31;;;;;;;16.80;5.63;;;;;;;25.53;53.55;100237.06;5082581;28;20044;-65
2022/06/15 08:55:17;;;;;;;12.73;4.72;;;;;;;25.44;53.91;100210.81;5085956;28;20787;-66
2022/06/15 08:57:53;;;;;;;12.07;4.50;;;;;;;25.44;53.71;100177.34;5078864;28;20143;-66
2022/06/15 09:00:31;;;;;;;9.52;4.10;;;;;;;25.70;54.12;100210.69;5078718;28;20135;-66
2022/06/15 09:03:21;;;;;;;8.80;4.43;;;;;;;25.82;53.54;100201.06;5076634;28;20131;-66
2022/06/15 09:06:19;;;;;;;11.77;4.95;;;;;;;25.77;53.88;100212.81;5079689;28;20056;-66
2022/06/15 09:08:52;;;;;;;18.15;4.90;;;;;;;25.70;53.63;100236.44;5077881;28;20052;-66
2022/06/15 09:11:37;;;;;;;12.35;4.43;;;;;;;25.98;53.17;100235.97;5089870;28;20043;-66
2022/06/15 09:14:32;;;;;;;11.48;5.07;;;;;;;26.37;53.03;100231.81;5085917;28;20454;-66
2022/06/15 09:17:07;;;;;;;9.13;5.15;;;;;;;26.65;52.30;100226.34;5086689;28;20142;-66
2022/06/15 09:19:46;;;;;;;9.52;4.82;;;;;;;26.97;51.71;100213.44;5081330;28;20050;-66
2022/06/15 09:22:27;;;;;;;13.30;4.57;;;;;;;26.85;51.70;100226.09;5079140;28;20499;-66
2022/06/15 09:25:33;;;;;;;11.63;4.55;;;;;;;26.70;51.90;100233.72;5087531;28;20079;-66
2022/06/15 09:28:07;;;;;;;11.45;4.82;;;;;;;26.73;51.45;100232.13;5098211;28;20207;-65
2022/06/15 09:30:41;;;;;;;15.55;5.93;;;;;;;26.80;50.84;100235.84;5086276;28;20133;-66
2022/06/15 09:33:22;;;;;;;10.82;4.03;;;;;;;26.67;51.08;100221.06;5086402;28;20052;-66
2022/06/15 09:36:02;;;;;;;11.52;4.93;;;;;;;26.57;50.65;100236.13;5080298;28;20079;-66
2022/06/15 09:38:31;;;;;;;15.45;5.15;;;;;;;26.50;50.40;100226.66;5084420;28;20561;-66
2022/06/15 09:41:10;;;;;;;15.45;5.07;;;;;;;26.44;50.95;100218.38;5084259;28;20123;-67
2022/06/15 09:43:43;;;;;;;11.57;5.10;;;;;;;26.73;50.62;100237.84;5078745;28;20139;-66
2022/06/15 09:46:33;;;;;;;9.70;4.57;;;;;;;26.92;50.37;100218.34;5086655;28;20059;-66
2022/06/15 09:49:21;;;;;;;8.95;3.92;;;;;;;26.97;50.07;100208.53;5093033;28;20090;-66
2022/06/15 09:52:08;;;;;;;13.85;4.88;;;;;;;26.65;50.24;100212.03;5077873;28;20044;-66
2022/06/15 09:55:02;;;;;;;13.00;5.15;;;;;;;26.59;50.35;100212.78;5080401;28;20106;-67
2022/06/15 09:57:30;;;;;;;12.43;4.90;;;;;;;26.66;50.57;100207.94;5086038;28;20047;-66
2022/06/15 09:59:57;;;;;;;12.25;4.45;;;;;;;26.73;50.55;100189.97;5082595;28;20131;-65
2022/06/15 10:02:31;;;;;;;17.33;5.13;;;;;;;26.88;50.48;100190.91;5085852;28;20530;-66
2022/06/15 10:05:02;;;;;;;9.23;5.30;;;;;;;27.05;50.13;100170.13;5078838;28;20052;-66
2022/06/15 10:07:37;;;;;;;8.15;4.32;;;;;;;27.40;49.53;100182.97;5089097;28;20430;-66
2022/06/15 10:10:27;;;;;;;9.18;4.45;;;;;;;27.46;49.80;100187.09;5087302;28;20169;-66
2022/06/15 10:13:02;;;;;;;9.82;4.10;;;;;;;27.60;49.06;100140.44;5081818;28;20437;-67
2022/06/15 10:15:40;;;;;;;14.07;5.13;;;;;;;28.37;48.82;100169.59;5078195;28;20051;-66
2022/06/15 10:18:42;;;;;;;16.80;5.03;;;;;;;28.92;48.12;100180.59;5082865;28;20135;-66
2022/06/15 10:21:15;;;;;;;16.63;4.60;;;;;;;29.22;47.96;100188.75;5086534;28;20084;-66
2022/06/15 10:24:16;;;;;;;20.58;5.35;;;;;;;29.47;47.52;100182.91;5084228;28;20553;-66
2022/06/15 10:26:52;;;;;;;12.27;5.18;;;;;;;29.93;47.05;100175.25;5091158;28;20083;-66
2022/06/15 10:29:29;;;;;;;10.32;4.25;;;;;;;29.77;47.22;100170.00;5093377;28;20087;-65
2022/06/15 10:32:08;;;;;;;16.23;5.57;;;;;;;29.38;47.13;100179.66;5084364;28;20477;-67
2022/06/15 10:34:41;;;;;;;13.18;5.28;;;;;;;29.10;47.09;100192.09;5088207;28;20091;-66
2022/06/15 10:37:18;;;;;;;13.93;6.03;;;;;;;29.17;47.09;100179.75;5079090;28;20131;-66
2022/06/15 10:39:53;;;;;;;19.27;6.28;;;;;;;29.42;46.92;100194.81;5088737;28;20520;-65
2022/06/15 10:42:20;;;;;;;16.92;5.45;;;;;;;29.41;46.41;100210.47;5094868;28;20468;-66
2022/06/15 10:45:32;;;;;;;13.43;5.72;;;;;;;29.09;46.67;100209.75;5090478;28;20134;-66
2022/06/15 10:48:15;;;;;;;11.25;5.00;;;;;;;28.90;46.94;100194.59;5050176;28;20102;-66
2022/06/15 10:50:52;;;;;;;15.65;5.88;;;;;;;29.08;46.52;100213.88;5083860;28;20139;-67
2022/06/15 10:53:51;;;;;;;11.63;5.05;;;;;;;29.10;46.61;100220.03;5087388;28;20121;-67
2022/06/15 11:02:37;;;;;;;14.07;5.18;;;;;;;27.90;49.23;100216.72;5084917;28;20058;-66
2022/06/15 11:05:14;;;;;;;23.33;7.05;;;;;;;27.56;50.26;100192.03;5081314;28;20488;-67
2022/06/15 11:07:52;;;;;;;11.95;5.60;;;;;;;27.43;51.22;100205.09;5094114;28;20051;-67
2022/06/15 11:10:35;;;;;;;15.35;6.70;;;;;;;27.34;50.90;100173.94;5095327;28;20052;-66
2022/06/15 11:13:17;;;;;;;16.23;6.18;;;;;;;27.46;50.85;100180.53;5108772;28;20048;-67
2022/06/15 11:18:39;;;;;;;18.80;5.68;;;;;;;27.32;51.00;100235.78;5097769;28;20052;-66
2022/06/15 11:21:19;;;;;;;18.15;6.20;;;;;;;27.34;51.64;100201.78;5088327;28;20208;-66
2022/06/15 11:24:09;;;;;;;17.60;6.25;;;;;;;27.36;51.96;100199.34;5086027;28;21418;-70
2022/06/15 11:27:09;;;;;;;18.38;5.88;;;;;;;27.18;51.77;100164.88;5102381;28;20162;-66
2022/06/15 11:29:48;;;;;;;16.13;7.17;;;;;;;27.21;52.15;100181.25;5112419;28;20055;-66
2022/06/15 11:32:40;;;;;;;15.65;6.45;;;;;;;27.17;52.35;100164.03;5106364;28;20079;-67
2022/06/15 11:35:13;;;;;;;21.02;7.18;;;;;;;27.24;52.46;100133.75;5090668;28;20087;-66
2022/06/15 11:37:51;;;;;;;14.88;6.93;;;;;;;27.25;52.33;100101.84;5091512;28;20387;-67
2022/06/15 11:40:21;;;;;;;15.07;6.25;;;;;;;27.24;52.99;100071.50;5096585;28;20101;-67
2022/06/15 11:42:51;;;;;;;16.20;6.53;;;;;;;27.25;52.83;99997.78;5106649;28;20521;-66
2022/06/15 11:45:32;;;;;;;15.55;5.85;;;;;;;27.28;52.51;99937.63;5096311;28;20074;-67
2022/06/15 11:48:15;;;;;;;21.27;6.50;;;;;;;27.38;52.20;99956.03;5094308;28;20566;-67
2022/06/15 11:51:15;;;;;;;17.95;5.47;;;;;;;27.45;52.24;100027.72;5089442;28;20077;-68
2022/06/15 11:54:00;;;;;;;;;;;;;;;27.34;52.24;100041.22;5057623;28;20498;-66
2022/06/15 11:56:32;;;;;;;14.98;5.38;;;;;;;27.50;51.92;100060.94;5108167;28;19920;-66